createdAt,value
2023-08-03T00:00:46.910Z,99.99
2023-08-03T00:01:47.216Z,99.99
2023-08-03T00:02:47.059Z,99.99
2023-08-03T00:03:47.147Z,99.99
2023-08-03T00:04:47.047Z,99.99
2023-08-03T00:05:47.081Z,99.99
2023-08-03T00:06:47.135Z,99.99
2023-08-03T00:07:47.147Z,99.99
2023-08-03T00:08:47.182Z,99.99
2023-08-03T00:09:47.218Z,99.99
2023-08-03T00:10:47.250Z,99.99
2023-08-03T00:11:47.283Z,99.99
2023-08-03T00:12:47.387Z,99.99
2023-08-03T00:13:47.360Z,99.99
2023-08-03T00:14:47.387Z,99.99
2023-08-03T00:15:47.477Z,99.99
2023-08-03T00:16:47.462Z,99.99
2023-08-03T00:17:47.573Z,99.99
2023-08-03T00:18:47.534Z,99.99
2023-08-03T00:19:47.569Z,99.44
2023-08-03T00:20:47.596Z,99.83
2023-08-03T00:21:47.632Z,99.11
2023-08-03T00:22:47.947Z,99.21
2023-08-03T00:23:47.699Z,98.77
2023-08-03T00:24:47.736Z,99.06
2023-08-03T00:25:47.769Z,98.24
2023-08-03T00:26:47.844Z,98.19
2023-08-03T00:27:47.842Z,98.48
2023-08-03T00:28:47.887Z,98.48
2023-08-03T00:29:47.911Z,97.14
2023-08-03T00:30:47.941Z,97.14
2023-08-03T00:31:48.084Z,97.24
2023-08-03T00:32:48.054Z,96.94
2023-08-03T00:33:48.054Z,96.85
2023-08-03T00:34:48.084Z,97.14
2023-08-03T00:35:48.133Z,97.14
2023-08-03T00:36:48.166Z,97.04
2023-08-03T00:37:48.190Z,96.75
2023-08-03T00:38:48.223Z,97.24
2023-08-03T00:39:48.283Z,97.24
2023-08-03T00:40:48.294Z,97.04
2023-08-03T00:41:48.328Z,97.24
2023-08-03T00:42:48.362Z,97.81
2023-08-03T00:43:48.396Z,98.00
2023-08-03T00:44:48.432Z,97.62
2023-08-03T00:45:48.465Z,97.52
2023-08-03T00:46:48.556Z,97.81
2023-08-03T00:47:48.558Z,98.00
2023-08-03T00:48:48.567Z,98.10
2023-08-03T00:49:48.603Z,98.68
2023-08-03T00:50:48.645Z,98.68
2023-08-03T00:51:48.673Z,98.58
2023-08-03T00:52:48.739Z,98.48
2023-08-03T00:53:48.745Z,99.15
2023-08-03T00:54:48.810Z,98.86
2023-08-03T00:55:48.816Z,99.25
2023-08-03T00:56:48.851Z,98.86
2023-08-03T00:57:48.888Z,99.35
2023-08-03T00:58:48.916Z,99.06
2023-08-03T00:59:48.964Z,99.15
2023-08-03T01:00:49.014Z,98.96
2023-08-03T01:01:49.021Z,99.06
2023-08-03T01:02:49.107Z,99.63
2023-08-03T01:03:49.087Z,99.92
2023-08-03T01:04:49.124Z,99.63
2023-08-03T01:05:49.176Z,99.63
2023-08-03T01:06:49.202Z,99.63
2023-08-03T01:07:49.226Z,99.73
2023-08-03T01:08:49.262Z,99.92
2023-08-03T01:09:49.304Z,99.63
2023-08-03T01:10:49.362Z,99.73
2023-08-03T01:11:49.366Z,99.63
2023-08-03T01:12:49.402Z,99.73
2023-08-03T01:13:49.446Z,99.92
2023-08-03T01:14:49.489Z,99.44
2023-08-03T01:15:49.504Z,99.54
2023-08-03T01:16:49.565Z,99.54
2023-08-03T01:17:49.624Z,99.63
2023-08-03T01:18:49.606Z,99.63
2023-08-03T01:19:49.641Z,99.25
2023-08-03T01:20:49.674Z,98.96
2023-08-03T01:21:49.718Z,99.54
2023-08-03T01:22:49.744Z,99.73
2023-08-03T01:23:49.826Z,99.35
2023-08-03T01:24:49.812Z,99.25
2023-08-03T01:25:49.850Z,99.63
2023-08-03T01:26:49.885Z,99.73
2023-08-03T01:27:49.919Z,99.54
2023-08-03T01:28:49.952Z,99.63
2023-08-03T01:29:49.996Z,99.44
2023-08-03T01:30:50.119Z,99.54
2023-08-03T01:31:50.062Z,99.54
2023-08-03T01:32:50.323Z,99.83
2023-08-03T01:33:50.124Z,99.83
2023-08-03T01:34:50.176Z,99.99
2023-08-03T01:35:50.196Z,99.99
2023-08-03T01:36:50.232Z,99.99
2023-08-03T01:37:50.263Z,99.99
2023-08-03T01:39:07.061Z,99.99
2023-08-03T01:39:50.325Z,99.99
2023-08-03T01:40:50.363Z,99.99
2023-08-03T01:41:50.397Z,99.99
2023-08-03T01:42:50.439Z,99.83
2023-08-03T01:43:50.466Z,99.83
2023-08-03T01:44:50.505Z,99.83
2023-08-03T01:45:50.570Z,99.63
2023-08-03T01:46:50.576Z,99.63
2023-08-03T01:47:50.629Z,99.83
2023-08-03T01:48:50.651Z,99.73
2023-08-03T01:49:50.671Z,99.54
2023-08-03T01:50:50.715Z,99.73
2023-08-03T01:51:50.742Z,99.92
2023-08-03T01:52:50.782Z,99.83
2023-08-03T01:53:50.818Z,99.83
2023-08-03T01:54:50.847Z,99.99
2023-08-03T01:55:50.882Z,99.99
2023-08-03T01:56:50.915Z,99.83
2023-08-03T01:57:50.958Z,99.99
2023-08-03T01:58:50.987Z,99.99
2023-08-03T01:59:51.020Z,99.99
2023-08-03T02:00:51.060Z,99.99
2023-08-03T02:01:51.136Z,99.99
2023-08-03T02:02:51.184Z,99.99
2023-08-03T02:03:51.171Z,99.99
2023-08-03T02:04:51.209Z,99.99
2023-08-03T02:05:51.226Z,99.99
2023-08-03T02:06:51.264Z,99.99
2023-08-03T02:07:51.295Z,99.99
2023-08-03T02:08:51.338Z,99.99
2023-08-03T02:09:53.468Z,99.99
2023-08-03T02:10:51.403Z,99.99
2023-08-03T02:11:51.432Z,99.99
2023-08-03T02:12:51.468Z,99.99
2023-08-03T02:13:51.511Z,99.99
2023-08-03T02:14:51.542Z,99.99
2023-08-03T02:15:51.609Z,99.99
2023-08-03T02:16:51.723Z,99.99
2023-08-03T02:17:51.680Z,99.99
2023-08-03T02:18:51.681Z,99.99
2023-08-03T02:19:51.710Z,99.99
2023-08-03T02:20:51.750Z,99.99
2023-08-03T02:21:51.788Z,99.99
2023-08-03T02:22:51.822Z,99.99
2023-08-03T02:23:51.857Z,99.99
2023-08-03T02:24:51.884Z,99.99
2023-08-03T02:25:51.922Z,99.99
2023-08-03T02:26:51.954Z,99.99
2023-08-03T02:27:51.985Z,99.99
2023-08-03T02:28:52.020Z,99.99
2023-08-03T02:29:52.051Z,99.99
2023-08-03T02:30:52.086Z,99.99
2023-08-03T02:31:52.124Z,99.99
2023-08-03T02:32:52.185Z,99.99
2023-08-03T02:33:52.224Z,99.99
2023-08-03T02:34:52.234Z,99.99
2023-08-03T02:35:52.263Z,99.99
2023-08-03T02:36:52.305Z,99.99
2023-08-03T02:37:52.326Z,99.99
2023-08-03T02:38:52.366Z,99.99
2023-08-03T02:39:52.406Z,99.99
2023-08-03T02:40:52.439Z,99.99
2023-08-03T02:41:52.569Z,99.99
2023-08-03T02:42:52.502Z,99.99
2023-08-03T02:43:52.533Z,99.99
2023-08-03T02:44:52.575Z,99.99
2023-08-03T02:45:52.739Z,99.99
2023-08-03T02:46:52.639Z,99.99
2023-08-03T02:47:52.732Z,99.99
2023-08-03T02:48:52.707Z,99.99
2023-08-03T02:49:52.768Z,99.99
2023-08-03T02:50:52.775Z,99.99
2023-08-03T02:51:52.829Z,99.99
2023-08-03T02:52:52.865Z,99.99
2023-08-03T02:53:52.876Z,99.99
2023-08-03T02:54:52.914Z,99.99
2023-08-03T02:55:52.951Z,99.99
2023-08-03T02:56:52.982Z,99.99
2023-08-03T02:57:53.032Z,99.99
2023-08-03T02:58:53.052Z,99.99
2023-08-03T02:59:53.088Z,99.99
2023-08-03T03:00:53.116Z,99.99
2023-08-03T03:01:53.219Z,99.99
2023-08-03T03:02:53.266Z,99.99
2023-08-03T03:03:53.222Z,99.99
2023-08-03T03:04:53.259Z,99.99
2023-08-03T03:05:53.286Z,99.99
2023-08-03T03:06:53.323Z,99.99
2023-08-03T03:07:53.365Z,99.99
2023-08-03T03:08:53.423Z,99.99
2023-08-03T03:09:53.429Z,99.99
2023-08-03T03:10:53.462Z,99.99
2023-08-03T03:11:53.491Z,99.99
2023-08-03T03:12:53.529Z,99.99
2023-08-03T03:13:53.562Z,99.99
2023-08-03T03:14:53.599Z,99.99
2023-08-03T03:15:53.672Z,99.99
2023-08-03T03:16:53.663Z,99.99
2023-08-03T03:17:53.715Z,99.99
2023-08-03T03:18:53.747Z,99.99
2023-08-03T03:19:53.765Z,99.99
2023-08-03T03:20:53.804Z,99.99
2023-08-03T03:21:53.836Z,99.99
2023-08-03T03:22:53.869Z,99.99
2023-08-03T03:23:53.907Z,99.99
2023-08-03T03:24:53.963Z,99.99
2023-08-03T03:25:53.972Z,99.99
2023-08-03T03:26:54.012Z,99.99
2023-08-03T03:27:54.045Z,99.99
2023-08-03T03:28:54.080Z,99.99
2023-08-03T03:29:54.126Z,99.99
2023-08-03T03:30:54.148Z,99.99
2023-08-03T03:31:54.186Z,99.99
2023-08-03T03:32:54.249Z,99.99
2023-08-03T03:33:54.261Z,99.99
2023-08-03T03:34:54.289Z,99.99
2023-08-03T03:35:54.314Z,99.99
2023-08-03T03:36:54.353Z,99.99
2023-08-03T03:37:54.384Z,99.99
2023-08-03T03:38:54.425Z,99.99
2023-08-03T03:39:54.456Z,99.99
2023-08-03T03:40:54.500Z,99.99
2023-08-03T03:41:54.522Z,99.99
2023-08-03T03:42:54.559Z,99.99
2023-08-03T03:43:54.590Z,99.99
2023-08-03T03:44:54.636Z,99.99
2023-08-03T03:45:54.728Z,99.99
2023-08-03T03:46:54.693Z,99.99
2023-08-03T03:47:54.762Z,99.99
2023-08-03T03:48:54.770Z,99.99
2023-08-03T03:49:54.801Z,99.99
2023-08-03T03:50:54.833Z,99.99
2023-08-03T03:51:54.866Z,99.99
2023-08-03T03:52:54.899Z,99.99
2023-08-03T03:53:54.943Z,99.99
2023-08-03T03:54:54.969Z,99.99
2023-08-03T03:55:55.003Z,99.99
2023-08-03T03:56:55.037Z,99.99
2023-08-03T03:57:55.066Z,99.99
2023-08-03T03:58:55.108Z,99.99
2023-08-03T03:59:55.138Z,99.99
2023-08-03T04:00:55.202Z,99.99
2023-08-03T04:01:55.205Z,99.99
2023-08-03T04:02:55.340Z,99.99
2023-08-03T04:03:55.466Z,99.99
2023-08-03T04:04:55.313Z,99.99
2023-08-03T04:05:55.350Z,99.99
2023-08-03T04:06:55.379Z,99.99
2023-08-03T04:07:55.412Z,99.99
2023-08-03T04:08:55.467Z,99.99
2023-08-03T04:09:55.487Z,99.99
2023-08-03T04:10:55.516Z,99.99
2023-08-03T04:11:55.548Z,99.99
2023-08-03T04:12:55.634Z,99.99
2023-08-03T04:13:56.934Z,99.99
2023-08-03T04:14:55.655Z,99.99
2023-08-03T04:15:55.748Z,99.99
2023-08-03T04:16:55.722Z,99.99
2023-08-03T04:17:55.802Z,99.99
2023-08-03T04:18:55.797Z,99.99
2023-08-03T04:19:55.835Z,99.99
2023-08-03T04:20:55.864Z,99.99
2023-08-03T04:21:56.806Z,99.99
2023-08-03T04:22:55.935Z,99.99
2023-08-03T04:23:55.975Z,99.99
2023-08-03T04:24:56.001Z,99.99
2023-08-03T04:25:56.031Z,99.99
2023-08-03T04:26:56.065Z,99.99
2023-08-03T04:27:56.110Z,99.99
2023-08-03T04:28:56.149Z,99.99
2023-08-03T04:29:56.169Z,99.73
2023-08-03T04:30:56.329Z,99.83
2023-08-03T04:31:56.236Z,99.63
2023-08-03T04:32:56.296Z,98.86
2023-08-03T04:33:56.304Z,99.25
2023-08-03T04:34:56.338Z,98.96
2023-08-03T04:35:56.384Z,98.86
2023-08-03T04:36:56.407Z,98.96
2023-08-03T04:37:56.443Z,98.48
2023-08-03T04:38:56.482Z,98.77
2023-08-03T04:39:56.510Z,98.68
2023-08-03T04:40:56.547Z,98.48
2023-08-03T04:41:56.596Z,98.10
2023-08-03T04:42:56.633Z,98.48
2023-08-03T04:43:56.658Z,98.48
2023-08-03T04:44:56.691Z,97.91
2023-08-03T04:45:56.732Z,98.29
2023-08-03T04:46:56.796Z,97.81
2023-08-03T04:47:56.834Z,97.62
2023-08-03T04:48:56.821Z,97.42
2023-08-03T04:49:56.908Z,97.04
2023-08-03T04:50:56.897Z,96.75
2023-08-03T04:51:56.944Z,97.33
2023-08-03T04:52:56.959Z,97.14
2023-08-03T04:53:57.001Z,96.85
2023-08-03T04:54:57.026Z,96.47
2023-08-03T04:55:57.063Z,96.27
2023-08-03T04:56:57.303Z,96.17
2023-08-03T04:57:57.135Z,96.47
2023-08-03T04:58:57.165Z,95.79
2023-08-03T04:59:57.199Z,95.89
2023-08-03T05:00:57.363Z,95.31
2023-08-03T05:01:57.375Z,95.98
2023-08-03T05:02:57.336Z,95.60
2023-08-03T05:03:57.374Z,95.03
2023-08-03T05:04:57.380Z,94.73
2023-08-03T05:05:57.412Z,95.31
2023-08-03T05:06:57.445Z,94.93
2023-08-03T05:07:57.476Z,95.21
2023-08-03T05:08:57.517Z,94.73
2023-08-03T05:09:57.547Z,94.06
2023-08-03T05:10:57.580Z,94.26
2023-08-03T05:11:57.613Z,93.58
2023-08-03T05:12:57.649Z,93.58
2023-08-03T05:13:57.691Z,93.39
2023-08-03T05:14:57.721Z,93.68
2023-08-03T05:15:57.757Z,93.44
2023-08-03T05:16:57.855Z,93.34
2023-08-03T05:17:57.848Z,93.01
2023-08-03T05:18:57.857Z,92.96
2023-08-03T05:19:57.909Z,93.15
2023-08-03T05:20:57.931Z,93.05
2023-08-03T05:21:57.964Z,93.44
2023-08-03T05:22:57.997Z,93.15
2023-08-03T05:23:58.041Z,93.05
2023-08-03T05:24:58.064Z,92.96
2023-08-03T05:25:58.101Z,93.24
2023-08-03T05:26:58.133Z,92.47
2023-08-03T05:27:58.181Z,92.29
2023-08-03T05:28:58.213Z,92.29
2023-08-03T05:29:58.249Z,91.80
2023-08-03T05:30:58.308Z,91.90
2023-08-03T05:31:58.306Z,91.99
2023-08-03T05:32:58.376Z,91.61
2023-08-03T05:33:58.390Z,91.52
2023-08-03T05:34:58.412Z,91.71
2023-08-03T05:35:58.456Z,91.32
2023-08-03T05:36:58.481Z,90.84
2023-08-03T05:37:58.518Z,90.65
2023-08-03T05:38:58.554Z,90.55
2023-08-03T05:39:58.591Z,90.55
2023-08-03T05:40:58.620Z,90.36
2023-08-03T05:41:58.654Z,90.31
2023-08-03T05:42:58.703Z,90.12
2023-08-03T05:43:58.731Z,90.12
2023-08-03T05:44:58.771Z,89.73
2023-08-03T05:45:58.801Z,89.44
2023-08-03T05:46:58.834Z,89.54
2023-08-03T05:47:58.902Z,89.15
2023-08-03T05:48:58.906Z,89.06
2023-08-03T05:49:58.941Z,89.25
2023-08-03T05:50:58.980Z,88.96
2023-08-03T05:51:59.011Z,88.67
2023-08-03T05:52:59.036Z,88.39
2023-08-03T05:53:59.070Z,88.48
2023-08-03T05:54:59.110Z,88.48
2023-08-03T05:56:10.444Z,87.81
2023-08-03T05:56:59.177Z,87.81
2023-08-03T05:58:06.474Z,87.62
2023-08-03T05:59:52.260Z,87.42
2023-08-03T06:00:52.216Z,87.42
2023-08-03T06:02:45.488Z,87.81
2023-08-03T06:03:45.572Z,87.42
2023-08-03T06:05:49.502Z,86.75
2023-08-03T06:06:49.568Z,86.75
2023-08-03T06:08:42.712Z,86.12
2023-08-03T06:09:42.697Z,86.36
2023-08-03T06:11:46.955Z,85.64
2023-08-03T06:12:46.782Z,85.83
2023-08-03T06:14:40.003Z,85.83
2023-08-03T06:15:39.990Z,85.35
2023-08-03T06:17:44.074Z,84.87
2023-08-03T06:18:44.068Z,85.25
2023-08-03T06:20:37.292Z,85.35
2023-08-03T06:21:37.307Z,85.35
2023-08-03T06:23:41.379Z,85.16
2023-08-03T06:24:41.398Z,84.58
2023-08-03T06:26:45.459Z,84.87
2023-08-03T06:27:45.484Z,84.19
2023-08-03T06:29:38.461Z,84.58
2023-08-03T06:30:38.493Z,84.58
2023-08-03T06:32:31.676Z,85.10
2023-08-03T06:33:31.694Z,83.95
2023-08-03T06:35:35.790Z,83.47
2023-08-03T06:36:35.785Z,82.89
2023-08-03T06:38:28.954Z,83.28
2023-08-03T06:39:28.989Z,82.98
2023-08-03T06:41:33.053Z,81.68
2023-08-03T06:42:33.085Z,81.45
2023-08-03T06:43:33.128Z,81.48
2023-08-03T06:44:34.762Z,81.39
2023-08-03T06:45:33.199Z,80.96
2023-08-03T06:46:33.290Z,81.39
2023-08-03T06:47:33.289Z,80.62
2023-08-03T06:48:33.294Z,80.71
2023-08-03T06:49:33.342Z,80.81
2023-08-03T06:50:35.373Z,80.71
2023-08-03T06:51:33.410Z,80.71
2023-08-03T06:52:33.476Z,80.33
2023-08-03T06:53:33.477Z,80.81
2023-08-03T06:54:33.512Z,80.62
2023-08-03T06:55:33.578Z,80.52
2023-08-03T06:56:33.582Z,80.14
2023-08-03T06:57:33.611Z,80.14
2023-08-03T06:58:33.651Z,78.69
2023-08-03T06:59:33.682Z,78.79
2023-08-03T07:00:33.734Z,78.88
2023-08-03T07:01:33.774Z,79.17
2023-08-03T07:02:33.895Z,79.08
2023-08-03T07:03:33.906Z,79.08
2023-08-03T07:04:33.868Z,77.73
2023-08-03T07:05:33.910Z,78.21
2023-08-03T07:06:33.987Z,78.40
2023-08-03T07:07:33.972Z,77.73
2023-08-03T07:08:34.031Z,77.92
2023-08-03T07:09:34.041Z,78.40
2023-08-03T07:10:34.087Z,78.88
2023-08-03T07:11:34.113Z,78.88
2023-08-03T07:12:34.145Z,78.50
2023-08-03T07:13:34.180Z,77.83
2023-08-03T07:14:34.225Z,77.92
2023-08-03T07:15:34.256Z,77.73
2023-08-03T07:16:34.358Z,77.92
2023-08-03T07:17:34.356Z,77.73
2023-08-03T07:18:34.421Z,77.76
2023-08-03T07:19:34.398Z,77.28
2023-08-03T07:20:34.430Z,77.86
2023-08-03T07:21:34.469Z,76.76
2023-08-03T07:22:34.502Z,77.06
2023-08-03T07:23:34.579Z,77.96
2023-08-03T07:24:34.575Z,77.38
2023-08-03T07:25:34.619Z,77.09
2023-08-03T07:26:34.648Z,76.80
2023-08-03T07:27:34.686Z,77.25
2023-08-03T07:28:34.716Z,77.58
2023-08-03T07:29:34.749Z,77.28
2023-08-03T07:30:34.791Z,77.25
2023-08-03T07:31:34.833Z,77.15
2023-08-03T07:32:34.870Z,77.25
2023-08-03T07:33:34.901Z,77.44
2023-08-03T07:34:34.954Z,77.53
2023-08-03T07:35:34.963Z,77.25
2023-08-03T07:36:35.003Z,77.86
2023-08-03T07:37:35.041Z,77.73
2023-08-03T07:38:35.072Z,78.25
2023-08-03T07:39:35.107Z,77.76
2023-08-03T07:40:35.145Z,77.25
2023-08-03T07:41:35.186Z,76.90
2023-08-03T07:42:35.218Z,77.00
2023-08-03T07:43:35.247Z,76.80
2023-08-03T07:46:35.421Z,76.51
2023-08-03T07:47:35.459Z,76.42
2023-08-03T07:48:35.434Z,76.51
2023-08-03T07:49:35.468Z,76.03
2023-08-03T07:50:35.513Z,76.42
2023-08-03T07:51:35.636Z,75.84
2023-08-03T07:52:35.572Z,75.74
2023-08-03T07:53:35.611Z,75.36
2023-08-03T07:54:35.656Z,75.36
2023-08-03T07:55:35.683Z,75.07
2023-08-03T07:56:35.714Z,75.16
2023-08-03T07:57:35.765Z,75.07
2023-08-03T07:58:35.791Z,74.30
2023-08-03T07:59:35.822Z,74.14
2023-08-03T08:00:35.910Z,73.57
2023-08-03T08:01:36.023Z,73.72
2023-08-03T08:02:35.972Z,74.14
2023-08-03T08:03:36.018Z,74.24
2023-08-03T08:04:36.002Z,74.24
2023-08-03T08:05:36.044Z,73.47
2023-08-03T08:06:36.119Z,73.18
2023-08-03T08:07:36.885Z,72.69
2023-08-03T08:08:36.149Z,72.60
2023-08-03T08:09:36.184Z,72.89
2023-08-03T08:10:36.231Z,72.60
2023-08-03T08:11:36.288Z,72.02
2023-08-03T08:12:36.294Z,72.31
2023-08-03T08:13:36.341Z,72.69
2023-08-03T08:14:36.363Z,72.02
2023-08-03T08:15:36.505Z,72.12
2023-08-03T08:16:36.452Z,71.83
2023-08-03T08:17:36.527Z,72.41
2023-08-03T08:18:36.537Z,72.15
2023-08-03T08:19:36.545Z,71.67
2023-08-03T08:20:36.580Z,72.15
2023-08-03T08:21:36.677Z,72.12
2023-08-03T08:22:36.692Z,72.06
2023-08-03T08:23:36.688Z,71.64
2023-08-03T08:24:36.799Z,71.54
2023-08-03T08:25:36.928Z,71.44
2023-08-03T08:26:36.869Z,72.12
2023-08-03T08:27:36.875Z,72.12
2023-08-03T08:28:40.954Z,72.15
2023-08-03T08:29:36.949Z,71.34
2023-08-03T08:30:36.994Z,71.28
2023-08-03T08:32:37.075Z,71.09
2023-08-03T08:33:37.082Z,71.28
2023-08-03T08:34:37.092Z,71.28
2023-08-03T08:35:37.117Z,71.67
2023-08-03T08:36:37.188Z,71.67
2023-08-03T08:37:37.199Z,71.09
2023-08-03T08:38:37.234Z,71.48
2023-08-03T08:39:37.297Z,71.58
2023-08-03T08:40:37.305Z,70.86
2023-08-03T08:41:37.331Z,70.80
2023-08-03T08:42:37.401Z,71.38
2023-08-03T08:43:37.405Z,71.38
2023-08-03T08:44:37.440Z,71.44
2023-08-03T08:45:37.548Z,71.48
2023-08-03T08:46:37.585Z,71.09
2023-08-03T08:47:37.693Z,71.48
2023-08-03T08:49:41.018Z,70.13
2023-08-03T08:53:15.008Z,69.78
2023-08-03T08:59:37.985Z,68.91
2023-08-03T09:00:38.020Z,69.20
2023-08-03T09:01:38.061Z,68.75
2023-08-03T09:02:38.136Z,68.36
2023-08-03T09:04:31.824Z,68.07
2023-08-03T09:04:38.265Z,68.07
2023-08-03T09:06:38.330Z,67.69
2023-08-03T09:07:38.334Z,67.46
2023-08-03T09:08:38.309Z,67.94
2023-08-03T09:09:38.349Z,67.65
2023-08-03T09:10:38.384Z,68.13
2023-08-03T09:11:38.483Z,68.94
2023-08-03T09:12:38.497Z,68.75
2023-08-03T09:13:38.494Z,68.26
2023-08-03T09:14:38.529Z,67.88
2023-08-03T09:15:38.577Z,68.07
2023-08-03T09:16:38.965Z,67.20
2023-08-03T09:17:38.713Z,67.49
2023-08-03T09:18:38.757Z,68.07
2023-08-03T09:19:39.768Z,68.26
2023-08-03T09:24:38.917Z,66.56
2023-08-03T09:25:41.902Z,65.40
2023-08-03T09:28:39.224Z,66.27
2023-08-03T09:29:39.102Z,66.08
2023-08-03T09:30:39.118Z,66.36
2023-08-03T09:33:39.326Z,66.27
2023-08-03T09:36:39.348Z,66.27
2023-08-03T09:38:39.408Z,66.43
2023-08-03T09:39:39.478Z,67.40
2023-08-03T09:40:39.485Z,67.78
2023-08-03T09:42:39.581Z,68.07
2023-08-03T09:43:39.616Z,67.88
2023-08-03T09:44:39.629Z,67.30
2023-08-03T09:45:39.673Z,67.20
2023-08-03T09:46:39.731Z,67.49
2023-08-03T09:47:39.855Z,68.36
2023-08-03T09:48:39.812Z,67.78
2023-08-03T09:49:39.824Z,68.26
2023-08-03T09:50:39.887Z,68.75
2023-08-03T09:52:04.341Z,69.23
2023-08-03T09:53:40.007Z,72.48
2023-08-03T09:55:40.040Z,71.80
2023-08-03T09:56:40.095Z,72.58
2023-08-03T09:57:40.113Z,72.58
2023-08-03T09:58:40.145Z,73.25
2023-08-03T09:59:40.192Z,72.38
2023-08-03T10:00:40.249Z,72.96
2023-08-03T10:01:40.248Z,72.77
2023-08-03T10:02:40.297Z,71.32
2023-08-03T10:03:40.396Z,71.42
2023-08-03T10:04:40.369Z,71.06
2023-08-03T10:05:40.409Z,71.06
2023-08-03T10:06:40.455Z,70.39
2023-08-03T10:07:40.469Z,69.71
2023-08-03T10:08:40.511Z,69.36
2023-08-03T10:09:40.606Z,68.49
2023-08-03T10:10:40.585Z,68.88
2023-08-03T10:11:40.613Z,68.40
2023-08-03T10:12:40.687Z,68.01
2023-08-03T10:13:40.693Z,67.52
2023-08-03T10:14:40.744Z,66.17
2023-08-03T10:15:40.866Z,65.98
2023-08-03T10:16:40.846Z,65.98
2023-08-03T10:17:40.881Z,65.98
2023-08-03T10:19:40.942Z,65.82
2023-08-03T10:20:41.012Z,66.40
2023-08-03T10:21:41.031Z,64.85
2023-08-03T10:22:41.041Z,64.56
2023-08-03T10:23:41.060Z,64.27
2023-08-03T10:24:41.140Z,63.69
2023-08-03T10:25:41.138Z,64.27
2023-08-03T10:26:41.183Z,64.95
2023-08-03T10:27:41.255Z,64.85
2023-08-03T10:28:41.264Z,64.85
2023-08-03T10:29:41.276Z,65.14
2023-08-03T10:30:41.335Z,64.85
2023-08-03T10:31:41.385Z,64.72
2023-08-03T10:32:41.442Z,65.01
2023-08-03T10:33:41.460Z,65.01
2023-08-03T10:34:41.462Z,65.14
2023-08-03T10:35:41.555Z,64.24
2023-08-03T10:36:42.479Z,64.95
2023-08-03T10:37:41.575Z,64.82
2023-08-03T10:38:41.616Z,65.11
2023-08-03T10:39:41.677Z,65.20
2023-08-03T10:40:41.686Z,65.88
2023-08-03T10:41:41.755Z,64.92
2023-08-03T10:42:41.804Z,65.30
2023-08-03T10:43:41.799Z,65.01
2023-08-03T10:44:41.829Z,66.24
2023-08-03T10:45:41.964Z,66.05
2023-08-03T10:46:42.301Z,66.33
2023-08-03T10:47:42.101Z,66.53
2023-08-03T10:48:42.209Z,66.72
2023-08-03T10:49:42.019Z,66.75
2023-08-03T10:50:42.053Z,66.17
2023-08-03T10:51:42.097Z,66.08
2023-08-03T10:52:42.167Z,66.36
2023-08-03T10:53:42.171Z,65.98
2023-08-03T10:54:42.200Z,64.72
2023-08-03T10:55:42.257Z,64.34
2023-08-03T10:56:42.653Z,64.24
2023-08-03T10:57:42.308Z,64.92
2023-08-03T10:58:42.367Z,64.72
2023-08-03T10:59:43.733Z,65.11
2023-08-03T11:00:42.425Z,65.72
2023-08-03T11:01:42.489Z,65.69
2023-08-03T11:02:42.598Z,64.82
2023-08-03T11:03:42.606Z,64.63
2023-08-03T11:04:42.591Z,64.92
2023-08-03T11:05:42.605Z,64.43
2023-08-03T11:06:43.102Z,65.11
2023-08-03T11:07:42.749Z,65.17
2023-08-03T11:08:42.714Z,65.88
2023-08-03T11:09:42.756Z,65.08
2023-08-03T11:10:42.811Z,65.40
2023-08-03T11:11:42.825Z,65.40
2023-08-03T11:12:42.859Z,64.79
2023-08-03T11:13:42.945Z,65.40
2023-08-03T11:14:42.952Z,65.01
2023-08-03T11:15:43.013Z,64.72
2023-08-03T11:16:43.342Z,64.92
2023-08-03T11:17:43.084Z,63.66
2023-08-03T11:18:43.083Z,63.66
2023-08-03T11:19:43.166Z,63.37
2023-08-03T11:20:43.178Z,63.66
2023-08-03T11:21:43.209Z,63.89
2023-08-03T11:22:43.283Z,63.89
2023-08-03T11:23:43.275Z,63.50
2023-08-03T11:24:43.303Z,63.79
2023-08-03T11:25:43.366Z,63.89
2023-08-03T11:26:43.584Z,63.11
2023-08-03T11:27:43.424Z,62.82
2023-08-03T11:28:43.535Z,63.21
2023-08-03T11:29:44.053Z,63.31
2023-08-03T11:30:43.542Z,63.69
2023-08-03T11:31:43.598Z,63.40
2023-08-03T11:32:43.643Z,63.60
2023-08-03T11:33:43.674Z,63.89
2023-08-03T11:34:43.717Z,65.43
2023-08-03T11:35:44.046Z,66.17
2023-08-03T11:36:44.049Z,66.36
2023-08-03T11:37:43.825Z,66.75
2023-08-03T11:38:43.823Z,66.85
2023-08-03T11:39:43.864Z,67.33
2023-08-03T11:40:43.957Z,67.78
2023-08-03T11:41:43.944Z,68.07
2023-08-03T11:42:43.980Z,68.55
2023-08-03T11:43:44.058Z,68.55
2023-08-03T11:44:54.906Z,68.36
2023-08-03T11:45:44.122Z,68.46
2023-08-03T11:46:44.337Z,68.49
2023-08-03T11:47:44.743Z,67.91
2023-08-03T11:48:44.192Z,68.01
2023-08-03T11:49:44.270Z,68.30
2023-08-03T11:50:44.265Z,68.01
2023-08-03T11:51:44.305Z,68.01
2023-08-03T11:52:44.372Z,68.10
2023-08-03T11:53:44.384Z,68.14
2023-08-03T11:54:44.415Z,67.36
2023-08-03T11:55:44.462Z,66.88
2023-08-03T11:56:45.178Z,66.88
2023-08-03T11:57:44.542Z,66.56
2023-08-03T11:58:44.586Z,66.66
2023-08-03T11:59:44.621Z,67.24
2023-08-03T12:00:44.650Z,67.52
2023-08-03T12:01:45.050Z,67.72
2023-08-03T12:02:44.874Z,68.10
2023-08-03T12:03:44.806Z,68.78
2023-08-03T12:13:22.199Z,69.32
2023-08-03T12:13:53.208Z,69.46
2023-08-03T12:15:58.286Z,69.13
2023-08-03T12:16:59.275Z,69.13
2023-08-03T12:19:02.439Z,69.13
2023-08-03T12:20:02.412Z,69.32
2023-08-03T12:22:06.532Z,69.62
2023-08-03T12:23:06.512Z,69.13
2023-08-03T12:24:59.735Z,68.46
2023-08-03T12:25:59.718Z,68.84
2023-08-03T12:28:03.879Z,68.17
2023-08-03T12:31:07.918Z,67.30
2023-08-03T12:32:07.939Z,66.91
2023-08-03T12:34:12.013Z,66.36
2023-08-03T12:35:12.063Z,66.08
2023-08-03T12:37:16.899Z,66.14
2023-08-03T12:38:16.108Z,66.63
2023-08-03T12:40:20.212Z,67.49
2023-08-03T12:41:20.205Z,67.40
2023-08-03T12:43:24.332Z,67.62
2023-08-03T12:44:24.302Z,66.82
2023-08-03T12:46:17.525Z,67.91
2023-08-03T12:47:17.503Z,67.52
2023-08-03T12:49:10.555Z,67.24
2023-08-03T12:50:10.705Z,67.52
2023-08-03T12:52:14.578Z,69.52
2023-08-03T12:53:14.661Z,71.03
2023-08-03T12:55:18.712Z,73.25
2023-08-03T12:56:18.714Z,73.25
2023-08-03T12:58:22.800Z,74.27
2023-08-03T12:59:22.890Z,74.57
2023-08-03T13:01:27.027Z,74.95
2023-08-03T13:02:27.013Z,73.79
2023-08-03T13:04:20.183Z,73.57
2023-08-03T13:05:20.304Z,74.08
2023-08-03T13:07:24.285Z,72.83
2023-08-03T13:08:24.343Z,71.96
2023-08-03T13:10:28.292Z,72.73
2023-08-03T13:11:28.382Z,72.92
2023-08-03T13:13:21.521Z,72.73
2023-08-03T13:14:21.555Z,72.25
2023-08-03T13:15:21.585Z,72.15
2023-08-03T13:16:21.614Z,72.63
2023-08-03T13:17:21.930Z,71.67
2023-08-03T13:18:21.868Z,71.19
2023-08-03T13:19:21.696Z,71.38
2023-08-03T13:20:21.782Z,71.61
2023-08-03T13:21:23.143Z,71.22
2023-08-03T13:22:21.809Z,70.84
2023-08-03T13:23:21.862Z,71.22
2023-08-03T13:24:21.886Z,70.54
2023-08-03T13:25:21.921Z,69.78
2023-08-03T13:26:21.997Z,69.97
2023-08-03T13:27:21.991Z,70.06
2023-08-03T13:28:22.097Z,70.54
2023-08-03T13:29:22.106Z,69.58
2023-08-03T13:30:22.098Z,69.87
2023-08-03T13:31:22.238Z,69.87
2023-08-03T13:32:22.258Z,69.68
2023-08-03T13:33:22.294Z,69.49
2023-08-03T13:34:22.246Z,70.06
2023-08-03T13:35:22.340Z,69.87
2023-08-03T13:36:22.325Z,69.68
2023-08-03T13:37:22.352Z,69.87
2023-08-03T13:38:22.550Z,69.68
2023-08-03T13:39:22.575Z,69.55
2023-08-03T13:40:22.463Z,70.16
2023-08-03T13:41:22.538Z,70.22
2023-08-03T13:42:22.560Z,70.22
2023-08-03T13:43:22.606Z,70.16
2023-08-03T13:44:22.649Z,69.74
2023-08-03T13:45:22.646Z,70.03
2023-08-03T13:46:22.712Z,69.93
2023-08-03T13:47:22.754Z,69.84
2023-08-03T13:48:22.795Z,69.87
2023-08-03T13:49:22.797Z,69.87
2023-08-03T13:50:22.834Z,69.93
2023-08-03T13:51:22.862Z,69.49
2023-08-03T13:52:22.892Z,70.61
2023-08-03T13:53:22.959Z,70.70
2023-08-03T13:54:22.971Z,70.64
2023-08-03T13:55:23.006Z,70.42
2023-08-03T13:56:32.233Z,70.80
2023-08-03T13:59:23.215Z,70.80
2023-08-03T14:00:23.184Z,71.19
2023-08-03T14:04:23.398Z,71.67
2023-08-03T14:06:23.458Z,71.19
2023-08-03T14:08:23.561Z,71.28
2023-08-03T14:09:23.563Z,70.61
2023-08-03T14:10:27.229Z,70.70
2023-08-03T14:11:23.681Z,71.00
2023-08-03T14:12:23.623Z,71.28